createdAt,value
2018-03-02T00:00:58.501Z,-5.65
2018-03-02T00:03:27.448Z,-5.67
2018-03-02T00:05:55.632Z,-5.67
2018-03-02T00:08:23.844Z,-5.69
2018-03-02T00:10:52.840Z,-5.67
2018-03-02T00:13:21.779Z,-5.64
2018-03-02T00:15:50.018Z,-5.66
2018-03-02T00:18:18.974Z,-5.68
2018-03-02T00:20:47.160Z,-5.73
2018-03-02T00:23:15.419Z,-5.69
2018-03-02T00:25:43.654Z,-5.72
2018-03-02T00:28:11.853Z,-5.69
2018-03-02T00:30:40.804Z,-5.70
2018-03-02T00:33:09.755Z,-5.65
2018-03-02T00:35:37.939Z,-5.65
2018-03-02T00:38:06.132Z,-5.70
2018-03-02T00:40:34.318Z,-5.66
2018-03-02T00:43:03.258Z,-5.66
2018-03-02T00:45:31.446Z,-5.63
2018-03-02T00:47:59.660Z,-5.66
2018-03-02T00:50:28.608Z,-5.65
2018-03-02T00:52:56.782Z,-5.62
2018-03-02T00:55:24.955Z,-5.69
2018-03-02T00:57:53.136Z,-5.66
2018-03-02T01:00:21.318Z,-5.60
2018-03-02T01:02:50.280Z,-5.59
2018-03-02T01:05:18.478Z,-5.59
2018-03-02T01:07:46.660Z,-5.64
2018-03-02T01:10:14.841Z,-5.67
2018-03-02T01:12:43.023Z,-5.65
2018-03-02T01:15:11.274Z,-5.66
2018-03-02T01:17:39.452Z,-5.64
2018-03-02T01:20:07.680Z,-5.62
2018-03-02T01:22:36.633Z,-5.62
2018-03-02T01:25:04.826Z,-5.63
2018-03-02T01:27:33.019Z,-5.63
2018-03-02T01:30:02.001Z,-5.60
2018-03-02T01:32:30.944Z,-5.62
2018-03-02T01:34:59.186Z,-5.55
2018-03-02T01:37:28.187Z,-5.51
2018-03-02T01:39:56.360Z,-5.56
2018-03-02T01:42:24.537Z,-5.63
2018-03-02T01:44:52.719Z,-5.65
2018-03-02T01:47:21.926Z,-5.71
2018-03-02T01:49:50.102Z,-5.69
2018-03-02T01:52:18.299Z,-5.61
2018-03-02T01:54:46.511Z,-5.69
2018-03-02T01:57:15.518Z,-5.75
2018-03-02T01:59:44.462Z,-5.73
2018-03-02T02:02:12.672Z,-5.63
2018-03-02T02:04:41.632Z,-5.68
2018-03-02T02:07:09.825Z,-5.70
2018-03-02T02:09:38.013Z,-5.73
2018-03-02T02:12:06.970Z,-5.76
2018-03-02T02:14:35.231Z,-5.80
2018-03-02T02:17:03.410Z,-5.65
2018-03-02T02:19:31.599Z,-5.76
2018-03-02T02:21:59.778Z,-5.82
2018-03-02T02:24:27.954Z,-5.80
2018-03-02T02:26:56.158Z,-5.86
2018-03-02T02:29:25.128Z,-5.75
2018-03-02T02:31:54.247Z,-5.86
2018-03-02T02:34:23.198Z,-5.92
2018-03-02T02:36:51.381Z,-5.91
2018-03-02T02:39:19.563Z,-5.93
2018-03-02T02:41:47.807Z,-5.98
2018-03-02T02:44:15.989Z,-5.87
2018-03-02T02:46:44.197Z,-5.92
2018-03-02T02:49:12.382Z,-5.94
2018-03-02T02:51:40.558Z,-6.06
2018-03-02T02:54:08.805Z,-6.08
2018-03-02T02:56:36.981Z,-6.08
2018-03-02T02:59:05.943Z,-6.05
2018-03-02T03:01:34.155Z,-5.97
2018-03-02T03:04:02.354Z,-6.01
2018-03-02T03:06:30.531Z,-6.11
2018-03-02T03:08:59.485Z,-6.25
2018-03-02T03:11:27.666Z,-6.35
2018-03-02T03:13:55.846Z,-6.27
2018-03-02T03:16:24.022Z,-6.32
2018-03-02T03:18:52.194Z,-6.36
2018-03-02T03:21:20.399Z,-6.38
2018-03-02T03:23:49.366Z,-6.41
2018-03-02T03:26:17.616Z,-6.40
2018-03-02T03:28:45.837Z,-6.23
2018-03-02T03:31:14.017Z,-6.20
2018-03-02T03:33:42.203Z,-6.19
2018-03-02T03:36:11.138Z,-6.28
2018-03-02T03:38:39.315Z,-6.27
2018-03-02T03:41:07.495Z,-6.22
2018-03-02T03:43:35.722Z,-6.18
2018-03-02T03:46:03.889Z,-6.17
2018-03-02T03:48:32.844Z,-6.31
2018-03-02T03:51:01.030Z,-6.24
2018-03-02T03:53:29.219Z,-6.23
2018-03-02T03:55:57.399Z,-6.19
2018-03-02T03:58:25.579Z,-6.18
2018-03-02T04:00:54.533Z,-6.11
2018-03-02T04:03:22.742Z,-6.06
2018-03-02T04:05:50.916Z,-6.10
2018-03-02T04:08:19.102Z,-6.20
2018-03-02T04:10:48.050Z,-6.19
2018-03-02T04:13:16.249Z,-6.19
2018-03-02T04:15:44.437Z,-6.14
2018-03-02T04:18:13.481Z,-6.08
2018-03-02T04:20:41.667Z,-6.11
2018-03-02T04:23:09.850Z,-6.07
2018-03-02T04:25:38.048Z,-6.17
2018-03-02T04:28:06.250Z,-6.10
2018-03-02T04:30:35.215Z,-6.10
2018-03-02T04:33:03.401Z,-6.06
2018-03-02T04:35:32.351Z,-6.01
2018-03-02T04:38:00.549Z,-6.08
2018-03-02T04:40:28.730Z,-6.06
2018-03-02T04:42:56.914Z,-6.04
2018-03-02T04:45:25.114Z,-6.08
2018-03-02T04:47:54.050Z,-6.14
2018-03-02T04:50:22.235Z,-6.09
2018-03-02T04:52:50.418Z,-6.13
2018-03-02T04:55:18.614Z,-6.08
2018-03-02T04:57:47.578Z,-6.09
2018-03-02T05:00:15.799Z,-6.06
2018-03-02T05:02:43.974Z,-5.93
2018-03-02T05:05:12.147Z,-6.02
2018-03-02T05:07:41.578Z,-6.05
2018-03-02T05:10:09.886Z,-5.94
2018-03-02T05:12:38.071Z,-5.97
2018-03-02T05:15:06.267Z,-5.96
2018-03-02T05:17:34.477Z,-5.98
2018-03-02T05:20:02.662Z,-6.02
2018-03-02T05:22:30.840Z,-5.91
2018-03-02T05:24:59.068Z,-5.98
2018-03-02T05:27:28.022Z,-5.98
2018-03-02T05:29:56.201Z,-5.99
2018-03-02T05:32:24.399Z,-6.03
2018-03-02T05:34:53.362Z,-5.89
2018-03-02T05:37:21.544Z,-5.99
2018-03-02T05:39:49.740Z,-5.98
2018-03-02T05:42:18.071Z,-6.00
2018-03-02T05:44:46.346Z,-6.00
2018-03-02T05:47:14.521Z,-5.99
2018-03-02T05:49:42.694Z,-5.95
2018-03-02T05:52:10.879Z,-5.93
2018-03-02T05:54:39.077Z,-5.99
2018-03-02T05:57:07.330Z,-5.92
2018-03-02T05:59:35.513Z,-5.98
2018-03-02T06:02:03.688Z,-5.99
2018-03-02T06:04:31.858Z,-5.97
2018-03-02T06:07:00.075Z,-6.00
2018-03-02T06:09:29.023Z,-6.01
2018-03-02T06:11:57.208Z,-5.85
2018-03-02T06:14:25.391Z,-5.99
2018-03-02T06:16:54.348Z,-5.88
2018-03-02T06:19:22.528Z,-5.91
2018-03-02T06:21:50.703Z,-5.88
2018-03-02T06:24:18.916Z,-5.88
2018-03-02T06:26:47.103Z,-5.80
2018-03-02T06:29:16.103Z,-5.92
2018-03-02T06:31:45.094Z,-5.88
2018-03-02T06:34:14.125Z,-5.85
2018-03-02T06:36:42.313Z,-5.84
2018-03-02T06:39:10.501Z,-5.83
2018-03-02T06:41:38.692Z,-5.78
2018-03-02T06:44:06.888Z,-5.66
2018-03-02T06:46:35.887Z,-5.71
2018-03-02T06:49:04.834Z,-5.72
2018-03-02T06:51:33.044Z,-5.74
2018-03-02T06:54:01.267Z,-5.74
2018-03-02T06:56:29.452Z,-5.67
2018-03-02T06:58:57.639Z,-5.52
2018-03-02T07:01:25.831Z,-5.51
2018-03-02T07:03:54.008Z,-5.58
2018-03-02T07:06:22.199Z,-5.74
2018-03-02T07:08:51.142Z,-5.71
2018-03-02T07:11:19.327Z,-5.68
2018-03-02T07:13:47.503Z,-5.66
2018-03-02T07:16:15.705Z,-5.71
2018-03-02T07:18:43.890Z,-5.68
2018-03-02T07:21:12.845Z,-5.60
2018-03-02T07:23:41.021Z,-5.62
2018-03-02T07:26:09.259Z,-5.62
2018-03-02T07:28:37.456Z,-5.52
2018-03-02T07:31:05.657Z,-5.49
2018-03-02T07:33:33.883Z,-5.37
2018-03-02T07:36:02.132Z,-5.35
2018-03-02T07:38:31.078Z,-5.31
2018-03-02T07:40:59.355Z,-5.54
2018-03-02T07:43:27.534Z,-5.51
2018-03-02T07:45:55.715Z,-5.51
2018-03-02T07:48:23.967Z,-5.43
2018-03-02T07:50:52.154Z,-5.45
2018-03-02T07:53:20.343Z,-5.52
2018-03-02T07:55:48.529Z,-5.59
2018-03-02T07:58:16.698Z,-5.59
2018-03-02T08:00:44.893Z,-5.43
2018-03-02T08:03:13.078Z,-5.41
2018-03-02T08:05:42.037Z,-5.41
2018-03-02T08:08:10.234Z,-5.40
2018-03-02T08:10:38.431Z,-5.41
2018-03-02T08:13:07.401Z,-5.32
2018-03-02T08:15:35.586Z,-5.26
2018-03-02T08:18:03.769Z,-5.13
2018-03-02T08:20:32.722Z,-5.12
2018-03-02T08:23:00.894Z,-5.06
2018-03-02T08:25:29.125Z,-4.97
2018-03-02T08:27:58.066Z,-5.08
2018-03-02T09:52:23.920Z,-4.77
2018-03-02T09:54:52.097Z,-4.73
2018-03-02T09:57:20.306Z,-4.81
2018-03-02T09:59:48.499Z,-4.73
2018-03-02T10:02:16.685Z,-4.86
2018-03-02T10:04:45.665Z,-4.82
2018-03-02T10:07:13.851Z,-4.76
2018-03-02T10:09:42.040Z,-5.09
2018-03-02T10:12:10.993Z,-5.00
2018-03-02T10:14:39.166Z,-4.91
2018-03-02T10:17:07.347Z,-4.68
2018-03-02T10:19:35.526Z,-4.57
2018-03-02T10:22:03.718Z,-4.49
2018-03-02T10:24:31.901Z,-4.50
2018-03-02T10:27:00.849Z,-4.39
2018-03-02T10:29:29.027Z,-4.57
2018-03-02T10:31:57.236Z,-4.77
2018-03-02T10:34:26.179Z,-4.70
2018-03-02T10:36:54.356Z,-4.49
2018-03-02T10:39:22.530Z,-4.53
2018-03-02T10:41:50.734Z,-4.57
2018-03-02T10:44:18.902Z,-4.70
2018-03-02T10:46:47.862Z,-4.55
2018-03-02T10:49:16.097Z,-4.60
2018-03-02T10:51:45.051Z,-4.79
2018-03-02T10:54:13.223Z,-4.93
2018-03-02T10:56:41.466Z,-4.63
2018-03-02T10:59:09.637Z,-4.52
2018-03-02T11:01:43.418Z,-4.74
2018-03-02T11:04:11.657Z,-4.68
2018-03-02T11:06:39.850Z,-4.62
2018-03-02T11:09:08.059Z,-4.39
2018-03-02T11:11:37.000Z,-4.29
2018-03-02T11:14:05.174Z,-4.21
2018-03-02T11:16:33.412Z,-4.04
2018-03-02T11:19:01.652Z,-3.83
2018-03-02T11:21:29.844Z,-3.78
2018-03-02T11:23:58.793Z,-3.75
2018-03-02T11:26:27.004Z,-3.69
2018-03-02T11:28:55.179Z,-3.59
2018-03-02T11:31:23.393Z,-3.52
2018-03-02T11:33:51.610Z,-3.54
2018-03-02T11:36:19.790Z,-3.44
2018-03-02T11:38:47.978Z,-3.51
2018-03-02T11:41:16.167Z,-3.39
2018-03-02T11:43:45.112Z,-3.37
2018-03-02T11:46:13.335Z,-3.31
2018-03-02T11:48:42.299Z,-3.43
2018-03-02T11:51:10.481Z,-3.32
2018-03-02T11:53:38.669Z,-3.05
2018-03-02T11:56:07.694Z,-3.02
2018-03-02T11:58:35.950Z,-3.03
2018-03-02T12:01:04.923Z,-3.06
2018-03-02T12:03:33.122Z,-3.28
2018-03-02T12:06:02.084Z,-2.89
2018-03-02T12:08:30.267Z,-2.87
2018-03-02T12:10:58.452Z,-2.69
2018-03-02T12:13:27.404Z,-2.62
2018-03-02T12:15:55.603Z,-2.37
2018-03-02T12:18:23.792Z,-2.38
2018-03-02T12:20:52.776Z,-1.88
2018-03-02T12:23:20.955Z,-1.58
2018-03-02T12:25:49.143Z,-1.46
2018-03-02T12:28:18.085Z,-1.50
2018-03-02T12:30:46.336Z,-1.83
2018-03-02T12:33:14.528Z,-1.74
2018-03-02T12:35:42.711Z,-1.66
2018-03-02T12:38:10.899Z,-1.89
2018-03-02T12:40:39.099Z,-1.91
2018-03-02T12:43:08.050Z,-1.91
2018-03-02T12:45:36.253Z,-2.00
2018-03-02T12:48:04.447Z,-2.19
2018-03-02T12:50:33.399Z,-2.12
2018-03-02T12:53:01.599Z,-1.84
2018-03-02T12:55:29.790Z,-1.94
2018-03-02T12:57:58.735Z,-2.15
2018-03-02T13:00:26.938Z,-2.48
2018-03-02T13:02:55.141Z,-2.24
2018-03-02T13:05:24.097Z,-2.09
2018-03-02T13:07:52.295Z,-2.03
2018-03-02T13:10:20.472Z,-1.87
2018-03-02T13:12:48.666Z,-1.90
2018-03-02T13:15:17.615Z,-2.00
2018-03-02T13:17:45.808Z,-1.83
2018-03-02T13:20:14.006Z,-1.85
2018-03-02T13:22:43.220Z,-1.90
2018-03-02T13:25:12.166Z,-2.18
2018-03-02T13:27:58.183Z,-2.20
2018-03-02T13:30:27.131Z,-2.23
2018-03-02T13:33:13.231Z,-2.32
2018-03-02T13:35:41.414Z,-2.53
2018-03-02T13:38:09.604Z,-2.78
2018-03-02T13:40:55.538Z,-2.92
2018-03-02T13:43:23.783Z,-2.96
2018-03-02T13:45:51.941Z,-2.93
2018-03-02T13:48:46.814Z,-2.83
2018-03-02T13:51:15.006Z,-2.57
2018-03-02T13:53:43.182Z,-2.53
2018-03-02T13:56:29.216Z,-2.62
2018-03-02T13:58:57.450Z,-2.59
2018-03-02T14:01:25.648Z,-2.73
2018-03-02T14:04:12.453Z,-3.02
2018-03-02T14:06:40.695Z,-3.06
2018-03-02T14:09:08.879Z,-2.91
2018-03-02T14:11:37.069Z,-2.82
2018-03-02T14:14:05.263Z,-2.78
2018-03-02T14:16:34.222Z,-2.72
2018-03-02T14:19:02.509Z,-2.80
2018-03-02T14:21:30.689Z,-2.82
2018-03-02T14:23:58.880Z,-3.11
2018-03-02T14:26:27.870Z,-3.09
2018-03-02T14:28:56.065Z,-2.96
2018-03-02T14:31:25.008Z,-2.82
2018-03-02T14:33:53.209Z,-2.93
2018-03-02T14:36:21.403Z,-2.95
2018-03-02T14:38:50.357Z,-2.78
2018-03-02T14:41:18.537Z,-2.93
2018-03-02T14:43:46.730Z,-2.94
2018-03-02T14:46:14.986Z,-2.94
2018-03-02T14:48:43.178Z,-2.96
2018-03-02T14:51:11.358Z,-2.97
2018-03-02T14:53:39.552Z,-2.88
2018-03-02T14:56:08.519Z,-2.92
2018-03-02T14:58:36.709Z,-2.97
2018-03-02T15:01:05.670Z,-3.06
2018-03-02T15:03:33.869Z,-3.10
2018-03-02T15:06:02.913Z,-2.93
2018-03-02T15:08:31.090Z,-2.99
2018-03-02T15:10:59.267Z,-2.98
2018-03-02T15:13:27.438Z,-2.97
2018-03-02T15:15:55.684Z,-2.90
2018-03-02T15:18:23.894Z,-2.97
2018-03-02T15:20:52.090Z,-2.95
2018-03-02T15:23:20.314Z,-2.85
2018-03-02T15:25:49.282Z,-2.99
2018-03-02T15:28:17.531Z,-3.14
2018-03-02T15:30:45.703Z,-3.24
2018-03-02T15:33:13.886Z,-3.21
2018-03-02T15:35:42.069Z,-3.30
2018-03-02T15:38:10.258Z,-3.18
2018-03-02T15:40:39.233Z,-3.06
2018-03-02T15:43:07.410Z,-3.19
2018-03-02T15:45:35.596Z,-3.12
2018-03-02T15:48:03.784Z,-3.22
2018-03-02T15:50:32.727Z,-3.26
2018-03-02T15:53:00.959Z,-3.16
2018-03-02T15:55:29.942Z,-3.19
2018-03-02T15:57:58.908Z,-3.23
2018-03-02T16:00:27.090Z,-3.27
2018-03-02T16:02:55.306Z,-3.19
2018-03-02T16:05:23.489Z,-3.27
2018-03-02T16:07:51.729Z,-3.38
2018-03-02T16:10:19.915Z,-3.45
2018-03-02T16:12:48.871Z,-3.47
2018-03-02T16:15:17.066Z,-3.52
2018-03-02T16:17:45.298Z,-3.59
2018-03-02T16:20:13.560Z,-3.53
2018-03-02T16:22:41.751Z,-3.64
2018-03-02T16:25:09.951Z,-3.66
2018-03-02T16:27:38.148Z,-3.68
2018-03-02T16:30:06.328Z,-3.68
2018-03-02T16:32:35.297Z,-3.66
2018-03-02T16:35:03.495Z,-3.75
2018-03-02T16:37:32.446Z,-3.72
2018-03-02T16:40:00.627Z,-3.66
2018-03-02T16:42:28.849Z,-3.82
2018-03-02T16:44:57.795Z,-3.83
2018-03-02T16:47:25.971Z,-3.79
2018-03-02T16:49:54.155Z,-3.77
2018-03-02T16:52:22.342Z,-3.74
2018-03-02T16:54:50.538Z,-3.70
2018-03-02T16:57:19.488Z,-3.72
2018-03-02T16:59:47.718Z,-3.72
2018-03-02T17:02:15.905Z,-3.78
2018-03-02T17:04:44.093Z,-3.79
2018-03-02T17:07:12.325Z,-3.75
2018-03-02T17:09:41.281Z,-3.67
2018-03-02T17:12:09.588Z,-3.72
2018-03-02T17:14:37.783Z,-3.74
2018-03-02T17:17:05.992Z,-3.77
2018-03-02T17:19:34.201Z,-3.73
2018-03-02T17:22:02.407Z,-3.68
2018-03-02T17:24:31.387Z,-3.73
2018-03-02T17:27:00.345Z,-3.74
2018-03-02T17:29:28.538Z,-3.50
2018-03-02T17:31:56.759Z,-3.59
2018-03-02T17:34:24.957Z,-3.62
2018-03-02T17:36:53.155Z,-3.61
2018-03-02T17:39:21.350Z,-3.59
2018-03-02T17:41:49.600Z,-3.58
2018-03-02T17:44:17.810Z,-3.61
2018-03-02T17:46:46.776Z,-3.58
2018-03-02T17:49:14.958Z,-3.52
2018-03-02T17:51:43.173Z,-3.42
2018-03-02T17:54:11.375Z,-3.40
2018-03-02T17:56:39.565Z,-3.41
2018-03-02T17:59:07.744Z,-3.44
2018-03-02T18:01:35.920Z,-3.46
2018-03-02T18:04:04.115Z,-3.44
2018-03-02T18:06:32.298Z,-3.44
2018-03-02T18:09:01.293Z,-3.48
2018-03-02T18:11:30.280Z,-3.50
2018-03-02T18:13:58.471Z,-3.49
2018-03-02T18:16:27.470Z,-3.48
2018-03-02T18:18:56.420Z,-3.47
2018-03-02T18:21:24.602Z,-3.39
2018-03-02T18:23:52.801Z,-3.35
2018-03-02T18:26:21.009Z,-3.42
2018-03-02T18:28:49.184Z,-3.43
2018-03-02T18:31:17.386Z,-3.42
2018-03-02T18:33:45.606Z,-3.38
2018-03-02T18:36:14.563Z,-3.33
2018-03-02T18:38:42.777Z,-3.24
2018-03-02T18:41:11.735Z,-3.37
2018-03-02T18:43:39.925Z,-3.42
2018-03-02T18:46:08.145Z,-3.47
2018-03-02T18:48:36.356Z,-3.42
2018-03-02T18:51:04.567Z,-3.41
2018-03-02T18:53:33.516Z,-3.42
2018-03-02T18:56:01.711Z,-3.44
2018-03-02T18:58:29.919Z,-3.38
2018-03-02T19:00:58.965Z,-3.43
2018-03-02T19:03:27.199Z,-3.39
2018-03-02T19:05:55.402Z,-3.47
2018-03-02T19:08:23.599Z,-3.43
2018-03-02T19:10:51.845Z,-3.36
2018-03-02T19:13:20.021Z,-3.36
2018-03-02T19:15:48.223Z,-3.31
2018-03-02T19:18:16.423Z,-3.27
2018-03-02T19:20:44.615Z,-3.37
2018-03-02T19:23:13.592Z,-3.43
2018-03-02T19:25:42.566Z,-3.39
2018-03-02T19:28:10.774Z,-3.49
2018-03-02T19:30:39.748Z,-3.44
2018-03-02T19:33:08.820Z,-3.45
2018-03-02T19:35:37.091Z,-3.43
2018-03-02T19:38:05.286Z,-3.49
2018-03-02T19:40:33.464Z,-3.44
2018-03-02T19:43:01.699Z,-3.49
2018-03-02T19:45:30.141Z,-3.53
2018-03-02T19:47:58.614Z,-3.53
2018-03-02T19:50:27.102Z,-3.56
2018-03-02T19:52:55.579Z,-3.55
2018-03-02T19:55:24.076Z,-3.56
2018-03-02T19:57:52.626Z,-3.58
2018-03-02T20:00:21.138Z,-3.62
2018-03-02T20:02:49.376Z,-3.64
2018-03-02T20:05:17.796Z,-3.56
2018-03-02T20:07:46.326Z,-3.59
2018-03-02T20:10:15.373Z,-3.56
2018-03-02T20:12:43.557Z,-3.57
2018-03-02T20:15:12.031Z,-3.59
2018-03-02T20:17:40.481Z,-3.60
2018-03-02T20:20:08.687Z,-3.55
2018-03-02T20:22:37.632Z,-3.53
2018-03-02T20:25:06.143Z,-3.52
2018-03-02T20:27:34.668Z,-3.57
2018-03-02T20:30:02.896Z,-3.50
2018-03-02T20:32:31.329Z,-3.55
2018-03-02T20:34:59.858Z,-3.62
2018-03-02T20:37:29.791Z,-3.58
2018-03-02T20:39:58.783Z,-3.52
2018-03-02T20:42:27.746Z,-3.45
2018-03-02T20:44:55.936Z,-3.41
2018-03-02T20:47:24.148Z,-3.51
2018-03-02T20:49:52.329Z,-3.58
2018-03-02T20:52:20.531Z,-3.47
2018-03-02T20:54:48.722Z,-3.68
2018-03-02T20:57:16.940Z,-3.64
2018-03-02T20:59:45.122Z,-3.68
2018-03-02T21:02:13.290Z,-3.62
2018-03-02T21:04:42.238Z,-3.57
2018-03-02T21:07:10.443Z,-3.62
2018-03-02T21:09:39.466Z,-3.78
2018-03-02T21:12:07.671Z,-3.76
2018-03-02T21:14:35.842Z,-3.84
2018-03-02T21:17:04.021Z,-3.76
2018-03-02T21:19:32.205Z,-3.77
2018-03-02T21:22:00.446Z,-3.76
2018-03-02T21:24:28.633Z,-3.90
2018-03-02T21:26:56.820Z,-3.81
2018-03-02T21:29:24.999Z,-3.72
2018-03-02T21:31:53.174Z,-3.78
2018-03-02T21:34:23.698Z,-3.85
2018-03-02T21:36:50.350Z,-3.81
2018-03-02T21:39:18.587Z,-3.94
2018-03-02T21:41:47.591Z,-4.00
2018-03-02T21:44:15.769Z,-3.94
2018-03-02T21:46:43.956Z,-3.99
2018-03-02T21:49:12.173Z,-3.88
2018-03-02T21:51:41.126Z,-3.91
2018-03-02T21:54:09.372Z,-3.92
2018-03-02T21:56:37.560Z,-3.93
2018-03-02T21:59:05.750Z,-3.93
2018-03-02T22:01:33.958Z,-4.02
2018-03-02T22:04:02.155Z,-3.78
2018-03-02T22:06:31.102Z,-3.99
2018-03-02T22:08:59.278Z,-3.98
2018-03-02T22:11:27.479Z,-3.88
2018-03-02T22:13:56.434Z,-3.77
2018-03-02T22:16:24.610Z,-4.01
2018-03-02T22:18:52.782Z,-4.13
2018-03-02T22:21:20.956Z,-4.12
2018-03-02T22:23:49.165Z,-4.09
2018-03-02T22:26:17.352Z,-4.06
2018-03-02T22:28:46.320Z,-4.02
2018-03-02T22:31:15.287Z,-3.98
2018-03-02T22:33:45.006Z,-3.87
2018-03-02T22:36:13.194Z,-3.90
2018-03-02T22:38:41.381Z,-3.90
2018-03-02T22:41:09.607Z,-3.92
2018-03-02T22:43:37.794Z,-3.95
2018-03-02T22:46:05.974Z,-3.95
2018-03-02T22:48:34.158Z,-3.91
2018-03-02T22:51:02.356Z,-4.06
2018-03-02T22:53:30.544Z,-4.02
2018-03-02T22:55:59.499Z,-4.09
2018-03-02T22:58:27.682Z,-3.96
2018-03-02T23:00:55.879Z,-4.10
2018-03-02T23:03:24.059Z,-4.04
2018-03-02T23:05:52.240Z,-3.91
2018-03-02T23:08:21.190Z,-3.93
2018-03-02T23:10:49.364Z,-3.87
2018-03-02T23:13:18.308Z,-3.91
2018-03-02T23:15:47.257Z,-3.61
2018-03-02T23:18:15.459Z,-3.80
2018-03-02T23:20:43.648Z,-3.83
2018-03-02T23:23:12.630Z,-4.02
2018-03-02T23:25:40.805Z,-4.02
2018-03-02T23:28:08.990Z,-4.03
2018-03-02T23:30:37.943Z,-4.03
2018-03-02T23:33:06.138Z,-3.95
2018-03-02T23:35:34.376Z,-3.92
2018-03-02T23:38:02.597Z,-3.91
2018-03-02T23:40:30.778Z,-3.97
2018-03-02T23:42:59.731Z,-3.99
2018-03-02T23:45:27.914Z,-4.01
2018-03-02T23:47:56.861Z,-3.93
2018-03-02T23:50:25.054Z,-3.95
2018-03-02T23:52:53.242Z,-3.92
2018-03-02T23:55:21.413Z,-3.90
2018-03-02T23:57:49.783Z,-3.92
